createdAt,value
2019-04-30T00:01:18.819Z,25.47
2019-04-30T00:04:05.638Z,24.80
2019-04-30T00:06:39.350Z,27.83
2019-04-30T00:09:09.644Z,25.00
2019-04-30T00:11:39.696Z,30.07
2019-04-30T00:14:09.475Z,30.47
2019-04-30T00:16:40.045Z,28.50
2019-04-30T00:19:10.718Z,25.03
2019-04-30T00:21:41.307Z,24.10
2019-04-30T00:24:12.087Z,22.90
2019-04-30T00:26:46.797Z,19.80
2019-04-30T00:29:19.104Z,23.67
2019-04-30T00:31:47.105Z,24.87
2019-04-30T00:34:16.952Z,22.87
2019-04-30T00:36:46.819Z,21.80
2019-04-30T00:39:17.655Z,20.83
2019-04-30T00:41:47.578Z,19.67
2019-04-30T00:44:19.999Z,22.23
2019-04-30T00:46:48.704Z,19.53
2019-04-30T00:49:22.901Z,18.60
2019-04-30T00:51:53.736Z,20.33
2019-04-30T00:54:22.516Z,17.93
2019-04-30T00:56:52.575Z,16.60
2019-04-30T00:59:22.657Z,17.13
2019-04-30T01:01:59.969Z,17.13
2019-04-30T01:04:34.961Z,18.80
2019-04-30T01:07:08.663Z,18.80
2019-04-30T01:09:39.633Z,15.17
2019-04-30T01:12:08.408Z,14.30
2019-04-30T01:14:38.649Z,13.20
2019-04-30T01:17:12.145Z,16.43
2019-04-30T01:19:40.160Z,14.13
2019-04-30T01:22:09.922Z,11.87
2019-04-30T01:24:39.656Z,16.03
2019-04-30T01:27:10.562Z,14.13
2019-04-30T01:29:44.335Z,17.00
2019-04-30T01:32:17.650Z,18.27
2019-04-30T01:34:49.802Z,23.00
2019-04-30T01:37:20.253Z,18.57
2019-04-30T01:39:49.232Z,18.23
2019-04-30T01:42:19.344Z,20.07
2019-04-30T01:44:53.545Z,20.60
2019-04-30T01:47:21.531Z,24.67
2019-04-30T01:49:55.825Z,20.97
2019-04-30T01:52:23.296Z,25.83
2019-04-30T01:54:53.992Z,24.47
2019-04-30T01:57:31.331Z,29.50
2019-04-30T02:00:09.748Z,31.57
2019-04-30T02:02:41.178Z,35.23
2019-04-30T02:05:11.137Z,36.83
2019-04-30T02:07:40.869Z,39.73
2019-04-30T02:10:11.430Z,49.93
2019-04-30T02:12:41.167Z,47.00
2019-04-30T02:15:11.971Z,38.13
2019-04-30T02:17:41.703Z,46.07
2019-04-30T02:20:12.062Z,42.23
2019-04-30T02:22:41.824Z,41.67
2019-04-30T02:25:11.683Z,41.93
2019-04-30T02:27:41.461Z,46.73
2019-04-30T02:30:11.536Z,44.50
2019-04-30T02:32:42.603Z,40.20
2019-04-30T02:35:30.380Z,38.47
2019-04-30T02:38:20.198Z,36.93
2019-04-30T02:40:50.863Z,40.27
2019-04-30T02:43:22.812Z,33.20
2019-04-30T02:45:55.670Z,35.40
2019-04-30T02:48:29.456Z,41.13
2019-04-30T02:51:01.182Z,35.07
2019-04-30T02:53:52.248Z,30.37
2019-04-30T02:56:26.547Z,33.57
2019-04-30T02:58:54.948Z,39.37
2019-04-30T03:01:24.697Z,38.40
2019-04-30T03:03:54.487Z,39.57
2019-04-30T03:06:24.235Z,41.33
2019-04-30T03:08:53.980Z,38.80
2019-04-30T03:11:23.775Z,41.30
2019-04-30T03:13:53.533Z,38.80
2019-04-30T03:16:25.869Z,40.87
2019-04-30T03:19:00.173Z,38.17
2019-04-30T03:21:46.553Z,36.70
2019-04-30T03:24:16.312Z,31.67
2019-04-30T03:26:49.680Z,39.63
2019-04-30T03:29:20.455Z,35.83
2019-04-30T03:31:52.467Z,34.10
2019-04-30T03:34:25.944Z,32.47
2019-04-30T03:36:53.536Z,32.87
2019-04-30T03:39:23.617Z,33.97
2019-04-30T03:41:53.356Z,36.07
2019-04-30T03:44:25.879Z,36.27
2019-04-30T03:46:54.497Z,34.50
2019-04-30T03:49:24.261Z,40.77
2019-04-30T03:51:54.039Z,37.60
2019-04-30T03:54:23.795Z,37.63
2019-04-30T03:56:55.159Z,35.37
2019-04-30T03:59:24.901Z,41.43
2019-04-30T04:01:56.224Z,35.67
2019-04-30T04:04:27.558Z,31.73
2019-04-30T04:07:00.115Z,30.40
2019-04-30T04:09:31.604Z,31.10
2019-04-30T04:12:20.419Z,31.67
2019-04-30T04:14:51.147Z,32.50
2019-04-30T04:17:22.854Z,29.83
2019-04-30T04:19:52.622Z,29.53
2019-04-30T04:22:22.363Z,26.53
2019-04-30T04:24:52.119Z,23.80
2019-04-30T04:27:21.897Z,24.97
2019-04-30T04:29:51.640Z,22.80
2019-04-30T04:32:24.419Z,24.10
2019-04-30T04:34:53.692Z,19.70
2019-04-30T04:37:23.479Z,18.23
2019-04-30T04:39:53.223Z,18.67
2019-04-30T04:42:33.003Z,19.50
2019-04-30T04:45:02.033Z,21.43
2019-04-30T04:47:31.885Z,19.73
2019-04-30T04:50:01.584Z,19.93
2019-04-30T04:52:31.886Z,19.30
2019-04-30T04:55:01.805Z,19.93
2019-04-30T04:57:31.551Z,19.93
2019-04-30T05:00:07.117Z,15.53
2019-04-30T05:02:35.353Z,19.47
2019-04-30T05:05:09.488Z,19.40
2019-04-30T05:07:39.978Z,20.27
2019-04-30T05:10:10.570Z,22.23
2019-04-30T05:12:40.296Z,19.50
2019-04-30T05:15:11.891Z,20.93
2019-04-30T05:17:41.638Z,21.30
2019-04-30T05:20:11.579Z,19.53
2019-04-30T05:22:41.344Z,21.10
2019-04-30T05:25:11.487Z,23.47
2019-04-30T05:27:41.261Z,24.50
2019-04-30T05:30:12.219Z,20.47
2019-04-30T05:32:43.077Z,23.67
2019-04-30T05:35:12.807Z,15.27
2019-04-30T05:37:42.574Z,16.30
2019-04-30T05:40:12.777Z,22.37
2019-04-30T05:42:42.549Z,21.53
2019-04-30T05:45:13.621Z,23.20
2019-04-30T05:47:43.351Z,25.07
2019-04-30T05:50:14.100Z,25.40
2019-04-30T05:52:43.859Z,19.97
2019-04-30T05:55:13.928Z,22.33
2019-04-30T05:57:55.648Z,24.80
2019-04-30T06:00:15.398Z,22.63
2019-04-30T06:02:45.293Z,23.73
2019-04-30T06:05:15.266Z,22.67
2019-04-30T06:07:45.315Z,19.87
2019-04-30T06:10:19.515Z,23.47
2019-04-30T06:12:50.840Z,26.70
2019-04-30T06:15:25.296Z,24.60
2019-04-30T06:18:00.711Z,24.80
2019-04-30T06:20:28.672Z,30.67
2019-04-30T06:22:59.644Z,24.90
2019-04-30T06:25:37.299Z,30.37
2019-04-30T06:28:01.202Z,37.30
2019-04-30T06:30:31.838Z,36.23
2019-04-30T06:33:02.469Z,34.93
2019-04-30T06:35:33.354Z,32.13
2019-04-30T06:38:03.090Z,36.80
2019-04-30T06:40:32.840Z,29.73
2019-04-30T06:43:02.701Z,32.93
2019-04-30T06:45:33.030Z,29.87
2019-04-30T06:48:05.023Z,31.57
2019-04-30T06:50:34.880Z,38.07
2019-04-30T06:53:04.620Z,33.20
2019-04-30T06:55:34.372Z,30.03
2019-04-30T06:58:14.693Z,28.30
2019-04-30T07:00:39.663Z,27.57
2019-04-30T07:03:09.829Z,26.27
2019-04-30T07:05:40.854Z,25.83
2019-04-30T07:08:37.383Z,24.50
2019-04-30T07:11:19.313Z,26.30
2019-04-30T07:13:52.300Z,25.53
2019-04-30T07:16:21.989Z,24.07
2019-04-30T07:18:51.726Z,20.90
2019-04-30T07:21:21.469Z,23.50
2019-04-30T07:23:51.327Z,21.67
2019-04-30T07:26:24.379Z,20.27
2019-04-30T07:28:55.341Z,20.90
2019-04-30T07:31:25.123Z,18.37
2019-04-30T07:33:54.915Z,20.20
2019-04-30T07:36:42.457Z,19.27
2019-04-30T07:38:56.892Z,18.50
2019-04-30T07:41:30.815Z,19.07
2019-04-30T07:43:59.389Z,16.90
2019-04-30T07:46:41.073Z,18.93
2019-04-30T07:49:10.053Z,21.80
2019-04-30T07:51:42.332Z,22.60
2019-04-30T07:54:12.559Z,19.37
2019-04-30T07:56:42.339Z,18.20
2019-04-30T07:59:12.158Z,18.03
2019-04-30T08:02:00.223Z,19.47
2019-04-30T08:04:29.083Z,19.47
2019-04-30T08:07:01.513Z,20.63
2019-04-30T08:09:39.226Z,18.60
2019-04-30T08:12:02.791Z,20.70
2019-04-30T08:14:32.624Z,24.03
2019-04-30T08:17:02.377Z,20.63
2019-04-30T08:19:32.100Z,24.10
2019-04-30T08:22:01.877Z,21.40
2019-04-30T08:24:31.630Z,24.30
2019-04-30T08:27:01.442Z,21.47
2019-04-30T08:29:31.203Z,22.20
2019-04-30T08:32:00.968Z,27.03
2019-04-30T08:34:30.720Z,28.37
2019-04-30T08:37:12.431Z,33.80
2019-04-30T08:39:39.600Z,25.00
2019-04-30T08:42:09.036Z,27.20
2019-04-30T08:44:39.991Z,25.97
2019-04-30T08:47:09.749Z,25.47
2019-04-30T08:49:40.437Z,25.77
2019-04-30T08:52:10.993Z,25.17
2019-04-30T08:54:41.023Z,23.60
2019-04-30T08:57:10.770Z,24.60
2019-04-30T08:59:40.531Z,23.57
2019-04-30T09:02:16.008Z,19.93
2019-04-30T09:04:41.667Z,22.13
2019-04-30T09:07:12.880Z,23.07
2019-04-30T09:09:44.556Z,22.27
2019-04-30T09:12:15.572Z,26.37
2019-04-30T09:14:45.320Z,23.67
2019-04-30T09:17:15.080Z,24.53
2019-04-30T09:19:44.966Z,22.30
2019-04-30T09:22:15.354Z,30.53
2019-04-30T09:24:45.167Z,23.03
2019-04-30T09:27:15.031Z,23.43
2019-04-30T09:29:44.773Z,23.47
2019-04-30T09:32:14.540Z,21.60
2019-04-30T09:34:44.309Z,23.53
2019-04-30T09:37:15.155Z,23.20
2019-04-30T09:39:44.973Z,24.60
2019-04-30T09:42:14.774Z,23.37
2019-04-30T09:44:44.538Z,22.57
2019-04-30T09:47:14.287Z,21.60
2019-04-30T09:49:44.036Z,25.20
2019-04-30T09:52:14.015Z,23.40
2019-04-30T09:54:43.877Z,24.57
2019-04-30T09:57:13.738Z,19.20
2019-04-30T09:59:44.584Z,22.63
2019-04-30T10:02:14.429Z,22.27
2019-04-30T10:04:44.387Z,22.07
2019-04-30T10:07:15.317Z,22.20
2019-04-30T10:09:46.028Z,20.03
2019-04-30T10:12:16.815Z,24.87
2019-04-30T10:14:46.598Z,25.27
2019-04-30T10:17:21.557Z,24.67
2019-04-30T10:19:51.295Z,23.20
2019-04-30T10:22:21.434Z,26.13
2019-04-30T10:24:51.171Z,20.80
2019-04-30T10:27:20.936Z,23.77
2019-04-30T10:29:50.822Z,24.20
2019-04-30T10:32:20.576Z,22.03
2019-04-30T10:34:50.348Z,22.23
2019-04-30T10:37:20.488Z,22.73
2019-04-30T10:39:50.266Z,20.77
2019-04-30T10:42:20.013Z,28.70
2019-04-30T10:44:49.982Z,21.70
2019-04-30T10:47:19.728Z,23.43
2019-04-30T10:49:49.576Z,21.03
2019-04-30T10:52:19.347Z,31.53
2019-04-30T10:54:49.705Z,30.37
2019-04-30T10:57:19.543Z,24.90
2019-04-30T10:59:49.355Z,23.23
2019-04-30T11:02:19.120Z,30.53
2019-04-30T11:04:49.053Z,27.60
2019-04-30T11:07:18.764Z,26.00
2019-04-30T11:09:49.347Z,26.93
2019-04-30T11:12:20.057Z,27.50
2019-04-30T11:14:49.795Z,25.60
2019-04-30T11:17:19.905Z,22.03
2019-04-30T11:19:49.966Z,26.03
2019-04-30T11:22:20.075Z,19.03
2019-04-30T11:24:58.902Z,21.67
2019-04-30T11:27:22.025Z,21.67
2019-04-30T11:29:53.280Z,23.03
2019-04-30T11:32:24.499Z,22.63
2019-04-30T11:34:54.479Z,24.77
2019-04-30T11:37:24.231Z,19.73
2019-04-30T11:39:53.973Z,26.50
2019-04-30T11:42:23.707Z,18.67
2019-04-30T11:44:53.523Z,21.83
2019-04-30T11:47:25.363Z,18.57
2019-04-30T11:49:55.451Z,21.47
2019-04-30T11:52:25.227Z,16.93
2019-04-30T11:54:54.986Z,18.57
2019-04-30T11:57:24.724Z,20.93
2019-04-30T11:59:54.475Z,17.93
2019-04-30T12:02:26.396Z,21.37
2019-04-30T12:04:56.136Z,18.93
2019-04-30T12:07:36.430Z,16.30
2019-04-30T12:10:29.274Z,16.27
2019-04-30T12:12:58.823Z,19.57
2019-04-30T12:15:29.579Z,12.70
2019-04-30T12:17:59.650Z,16.80
2019-04-30T12:20:29.401Z,19.57
2019-04-30T12:22:59.220Z,17.23
2019-04-30T12:25:30.420Z,17.23
2019-04-30T12:28:00.274Z,17.70
2019-04-30T12:30:30.059Z,21.87
2019-04-30T12:32:59.805Z,21.17
2019-04-30T12:35:29.568Z,15.90
2019-04-30T12:37:59.327Z,20.50
2019-04-30T12:40:31.790Z,15.60
2019-04-30T12:43:01.468Z,20.67
2019-04-30T12:45:31.201Z,17.03
2019-04-30T12:48:02.536Z,18.33
2019-04-30T12:50:36.689Z,22.30
2019-04-30T12:53:16.784Z,22.07
2019-04-30T12:55:54.003Z,17.00
2019-04-30T12:58:23.763Z,18.17
2019-04-30T13:01:12.779Z,20.80
2019-04-30T13:03:42.553Z,26.10
2019-04-30T13:06:13.036Z,23.93
2019-04-30T13:08:43.537Z,14.40
2019-04-30T13:11:14.068Z,16.93
2019-04-30T13:13:44.777Z,16.97
2019-04-30T13:16:14.908Z,15.07
2019-04-30T13:18:44.699Z,14.00
2019-04-30T13:21:14.647Z,17.03
2019-04-30T13:23:44.411Z,21.50
2019-04-30T13:26:14.171Z,12.93
2019-04-30T13:28:54.526Z,17.63
2019-04-30T13:31:24.294Z,16.77
2019-04-30T13:33:58.319Z,12.73
2019-04-30T13:36:27.010Z,15.67
2019-04-30T13:39:10.568Z,19.63
2019-04-30T13:41:46.250Z,19.20
2019-04-30T13:44:19.406Z,15.77
2019-04-30T13:46:49.280Z,12.73
2019-04-30T13:49:19.029Z,14.40
2019-04-30T13:51:48.823Z,13.20
2019-04-30T13:54:18.638Z,17.07
2019-04-30T13:56:49.334Z,21.43
2019-04-30T13:59:19.173Z,19.70
2019-04-30T14:01:49.001Z,21.93
2019-04-30T14:04:35.677Z,19.87
2019-04-30T14:07:06.988Z,33.27
2019-04-30T14:09:36.736Z,20.77
2019-04-30T14:12:06.486Z,19.63
2019-04-30T14:14:36.293Z,14.07
2019-04-30T14:17:06.516Z,18.53
2019-04-30T14:19:36.276Z,17.27
2019-04-30T14:22:08.809Z,13.37
2019-04-30T14:24:38.318Z,13.60
2019-04-30T14:27:09.002Z,13.60
2019-04-30T14:29:39.565Z,14.00
2019-04-30T14:32:10.369Z,12.90
2019-04-30T14:34:40.227Z,19.93
2019-04-30T14:37:09.990Z,17.87
2019-04-30T14:39:40.059Z,12.83
2019-04-30T14:42:11.495Z,14.17
2019-04-30T14:44:42.107Z,14.97
2019-04-30T14:47:14.310Z,15.17
2019-04-30T14:50:01.597Z,17.73
2019-04-30T14:52:24.512Z,16.70
2019-04-30T14:54:58.799Z,14.03
2019-04-30T14:57:51.063Z,10.67
2019-04-30T15:00:38.838Z,10.23
2019-04-30T15:03:13.740Z,14.80
2019-04-30T15:05:48.849Z,8.73
2019-04-30T15:08:14.846Z,9.63
2019-04-30T15:10:44.616Z,9.40
2019-04-30T15:13:14.349Z,11.63
2019-04-30T15:15:44.300Z,8.03
2019-04-30T15:18:14.044Z,7.90
2019-04-30T15:20:43.806Z,7.97
2019-04-30T15:23:21.870Z,12.20
2019-04-30T15:25:51.727Z,9.43
2019-04-30T15:28:21.481Z,11.43
2019-04-30T15:30:51.535Z,11.77
2019-04-30T15:33:35.152Z,17.43
2019-04-30T15:36:05.783Z,10.53
2019-04-30T15:38:53.639Z,17.63
2019-04-30T15:41:23.468Z,18.43
2019-04-30T15:43:53.232Z,8.73
2019-04-30T15:46:42.440Z,13.10
2019-04-30T15:49:12.227Z,13.57
2019-04-30T15:51:43.077Z,13.17
2019-04-30T15:54:13.703Z,20.17
2019-04-30T15:56:43.847Z,21.73
2019-04-30T15:59:24.158Z,27.97
2019-04-30T16:01:55.478Z,34.60
2019-04-30T16:04:35.373Z,22.83
2019-04-30T16:07:05.118Z,22.17
2019-04-30T16:09:54.246Z,28.93
2019-04-30T16:12:34.803Z,33.10
2019-04-30T16:15:05.471Z,30.63
2019-04-30T16:17:39.069Z,29.70
2019-04-30T16:20:08.529Z,27.87
2019-04-30T16:22:39.207Z,31.50
2019-04-30T16:25:09.192Z,35.57
2019-04-30T16:27:38.954Z,34.83
2019-04-30T16:30:09.575Z,12.20
2019-04-30T16:32:40.013Z,21.17
2019-04-30T16:35:09.841Z,19.33
2019-04-30T16:37:39.613Z,19.13
2019-04-30T16:40:10.413Z,18.17
2019-04-30T16:42:40.227Z,19.90
2019-04-30T16:45:10.128Z,22.60
2019-04-30T16:47:39.878Z,16.97
2019-04-30T16:50:10.960Z,18.23
2019-04-30T16:52:40.761Z,14.50
2019-04-30T16:55:10.698Z,19.83
2019-04-30T16:57:41.065Z,16.97
2019-04-30T17:00:13.232Z,20.07
2019-04-30T17:02:44.569Z,25.47
2019-04-30T17:05:20.553Z,26.60
2019-04-30T17:07:59.589Z,29.00
2019-04-30T17:10:33.670Z,32.00
2019-04-30T17:13:05.030Z,39.20
2019-04-30T17:15:36.644Z,44.77
2019-04-30T17:18:09.820Z,38.77
2019-04-30T17:20:38.701Z,38.87
2019-04-30T17:23:09.443Z,34.17
2019-04-30T17:25:39.422Z,30.77
2019-04-30T17:28:09.316Z,34.67
2019-04-30T17:30:39.234Z,29.50
2019-04-30T17:33:09.572Z,27.90
2019-04-30T17:35:39.416Z,31.10
2019-04-30T17:38:09.168Z,23.63
2019-04-30T17:40:39.037Z,25.20
2019-04-30T17:43:08.825Z,33.37
2019-04-30T17:45:39.154Z,30.97
2019-04-30T17:48:09.048Z,38.93
2019-04-30T17:50:39.615Z,42.83
2019-04-30T17:53:09.699Z,33.67
2019-04-30T17:55:39.429Z,41.40
2019-04-30T17:58:09.780Z,38.63
2019-04-30T18:00:41.320Z,36.97
2019-04-30T18:03:11.145Z,38.43
2019-04-30T18:05:40.934Z,33.90
2019-04-30T18:08:10.683Z,34.30
2019-04-30T18:10:41.163Z,32.73
2019-04-30T18:13:10.937Z,58.00
2019-04-30T18:15:40.685Z,41.57
2019-04-30T18:18:12.043Z,53.77
2019-04-30T18:20:46.351Z,103.73
2019-04-30T18:23:17.688Z,57.77
2019-04-30T18:25:51.967Z,46.30
2019-04-30T18:28:40.998Z,39.40
2019-04-30T18:31:10.753Z,41.93
2019-04-30T18:33:40.507Z,49.70
2019-04-30T18:36:10.230Z,58.20
2019-04-30T18:38:40.018Z,60.77
2019-04-30T18:41:09.776Z,132.73
2019-04-30T18:43:40.515Z,113.67
2019-04-30T18:46:11.964Z,98.40
2019-04-30T18:48:43.327Z,112.90
2019-04-30T18:51:30.070Z,93.73
2019-04-30T18:53:46.946Z,68.73
2019-04-30T18:56:15.864Z,77.90
2019-04-30T18:58:45.610Z,57.30
2019-04-30T19:01:15.662Z,52.50
2019-04-30T19:03:45.419Z,43.10
2019-04-30T19:06:23.843Z,41.77
2019-04-30T19:08:52.968Z,38.37
2019-04-30T19:11:24.387Z,65.97
2019-04-30T19:13:59.279Z,99.97
2019-04-30T19:16:46.813Z,66.27
2019-04-30T19:19:19.585Z,56.27
2019-04-30T19:21:49.415Z,65.83
2019-04-30T19:24:19.710Z,70.73
2019-04-30T19:26:49.608Z,74.30
2019-04-30T19:29:19.396Z,64.43
2019-04-30T19:31:49.507Z,55.90
2019-04-30T19:34:19.386Z,57.57
2019-04-30T19:36:49.341Z,55.53
2019-04-30T19:39:20.722Z,45.97
2019-04-30T19:41:50.514Z,49.93
2019-04-30T19:44:20.901Z,51.93
2019-04-30T19:46:50.821Z,54.30
2019-04-30T19:49:20.598Z,57.73
2019-04-30T19:51:53.128Z,79.70
2019-04-30T19:54:21.776Z,65.37
2019-04-30T19:56:51.537Z,63.57
2019-04-30T19:59:21.577Z,57.57
2019-04-30T20:01:52.643Z,57.97
2019-04-30T20:04:32.625Z,56.43
2019-04-30T20:06:53.889Z,65.77
2019-04-30T20:09:23.623Z,65.07
2019-04-30T20:11:53.383Z,68.40
2019-04-30T20:14:23.120Z,63.33
2019-04-30T20:16:52.898Z,62.57
2019-04-30T20:19:22.731Z,74.50
2019-04-30T20:21:53.994Z,78.80
2019-04-30T20:24:24.044Z,67.67
2019-04-30T20:27:04.150Z,70.77
2019-04-30T20:29:28.675Z,73.40
2019-04-30T20:31:58.978Z,70.83
2019-04-30T20:34:29.356Z,71.73
2019-04-30T20:37:00.318Z,63.30
2019-04-30T20:39:46.966Z,65.47
2019-04-30T20:42:16.707Z,65.57
2019-04-30T20:44:46.469Z,64.23
2019-04-30T20:47:16.209Z,60.50
2019-04-30T20:49:46.027Z,60.50
2019-04-30T20:52:15.755Z,67.27
2019-04-30T20:54:45.491Z,62.83
2019-04-30T20:57:15.281Z,63.17
2019-04-30T20:59:45.062Z,60.40
2019-04-30T21:02:14.796Z,58.27
2019-04-30T21:04:44.537Z,55.67
2019-04-30T21:07:14.302Z,58.13
2019-04-30T21:09:44.087Z,68.53
2019-04-30T21:12:13.827Z,54.33
2019-04-30T21:14:43.587Z,55.37
2019-04-30T21:17:13.347Z,55.50
2019-04-30T21:19:43.088Z,61.03
2019-04-30T21:22:12.891Z,59.93
2019-04-30T21:24:42.631Z,57.83
2019-04-30T21:27:12.396Z,54.60
2019-04-30T21:29:42.152Z,57.57
2019-04-30T21:32:18.950Z,58.70
2019-04-30T21:34:53.471Z,63.77
2019-04-30T21:37:23.205Z,55.93
2019-04-30T21:39:53.010Z,54.50
2019-04-30T21:42:22.755Z,53.17
2019-04-30T21:44:52.492Z,47.83
2019-04-30T21:47:22.228Z,53.73
2019-04-30T21:49:51.963Z,52.80
2019-04-30T21:52:40.995Z,51.97
2019-04-30T21:55:11.060Z,51.83
2019-04-30T21:57:41.391Z,45.80
2019-04-30T22:00:14.743Z,53.17
2019-04-30T22:02:46.037Z,50.07
2019-04-30T22:05:15.994Z,46.80
2019-04-30T22:07:45.746Z,50.03
2019-04-30T22:10:15.487Z,49.07
2019-04-30T22:12:45.232Z,47.33
2019-04-30T22:15:15.083Z,48.60
2019-04-30T22:17:44.831Z,46.40
2019-04-30T22:20:14.723Z,50.90
2019-04-30T22:22:44.477Z,48.03
2019-04-30T22:25:14.219Z,48.80
2019-04-30T22:27:43.987Z,45.30
2019-04-30T22:30:14.327Z,48.47
2019-04-30T22:32:44.167Z,48.33
2019-04-30T22:35:28.302Z,44.03
2019-04-30T22:38:05.424Z,42.33
2019-04-30T22:40:35.437Z,34.90
2019-04-30T22:43:05.200Z,37.13
2019-04-30T22:45:38.280Z,34.97
2019-04-30T22:48:08.868Z,32.47
2019-04-30T22:50:39.629Z,36.93
2019-04-30T22:53:09.740Z,48.93
2019-04-30T22:55:39.502Z,43.23
2019-04-30T22:58:09.563Z,45.00
2019-04-30T23:01:00.163Z,53.50
2019-04-30T23:03:31.564Z,49.83
2019-04-30T23:06:01.573Z,47.80
2019-04-30T23:08:31.344Z,43.13
2019-04-30T23:11:01.059Z,38.40
2019-04-30T23:13:30.831Z,37.57
2019-04-30T23:16:02.279Z,43.30
2019-04-30T23:18:32.301Z,41.87
2019-04-30T23:21:02.170Z,37.03
2019-04-30T23:23:31.958Z,34.60
2019-04-30T23:26:01.659Z,42.73
2019-04-30T23:28:31.417Z,34.33
2019-04-30T23:31:01.171Z,36.57
2019-04-30T23:33:30.911Z,39.77
2019-04-30T23:36:00.677Z,39.07
2019-04-30T23:38:30.416Z,46.70
2019-04-30T23:41:00.531Z,31.90
2019-04-30T23:43:30.273Z,37.53
2019-04-30T23:46:00.361Z,43.30
2019-04-30T23:48:30.488Z,34.53
2019-04-30T23:51:00.603Z,34.93
2019-04-30T23:53:30.469Z,33.93
2019-04-30T23:56:00.238Z,39.17
2019-04-30T23:58:29.966Z,45.83
